Time;durP1;ratioP1;P1;durP2;ratioP2;P2;SDS_P1;SDS_P2;PMS_P1;PMS_P2;Temp;Humidity;BMP_temperature;BMP_pressure;BME280_temperature;BME280_humidity;BME280_pressure;Samples;Min_cycle;Max_cycle;Signal;HPM_P1;HPM_P2
2022/02/09 00:02:01;;;;;;;0.40;0.30;;;;;;;9.30;100.00;101824.25;5053175;28;20450;-72
2022/02/09 00:04:33;;;;;;;0.40;0.20;;;;;;;9.31;100.00;101826.69;5053073;28;20543;-72
2022/02/09 00:07:07;;;;;;;0.40;0.30;;;;;;;9.28;100.00;101834.50;5053481;28;20856;-72
2022/02/09 00:09:34;;;;;;;0.40;0.30;;;;;;;9.26;100.00;101834.75;5053137;28;20916;-72
2022/02/09 00:12:06;;;;;;;0.40;0.30;;;;;;;9.25;100.00;101840.41;5053296;28;20446;-72
2022/02/09 00:14:42;;;;;;;0.40;0.30;;;;;;;9.25;100.00;101832.31;5053280;28;20462;-72
2022/02/09 00:17:27;;;;;;;0.40;0.30;;;;;;;9.26;100.00;101842.88;5053404;28;20418;-72
2022/02/09 00:20:15;;;;;;;0.40;0.30;;;;;;;9.22;100.00;101835.56;5053360;28;20790;-72
2022/02/09 00:23:10;;;;;;;0.40;0.30;;;;;;;9.23;100.00;101839.88;5053233;28;20480;-72
2022/02/09 00:31:20;;;;;;;0.40;0.30;;;;;;;9.23;100.00;101839.88;5019806;28;20924;-72
2022/02/09 00:37:08;;;;;;;0.40;0.30;;;;;;;9.22;100.00;101835.56;5005707;28;20958;-73
2022/02/09 00:40:05;;;;;;;0.47;0.30;;;;;;;9.22;100.00;101822.84;5053077;28;20431;-73
2022/02/09 00:43:01;;;;;;;0.40;0.30;;;;;;;9.27;100.00;101849.09;5052689;28;20422;-73
2022/02/09 01:57:22;;;;;;;0.40;0.30;;;;;;;9.24;100.00;101869.34;4981956;28;20445;-71
2022/02/09 01:59:49;;;;;;;0.40;0.40;;;;;;;9.22;100.00;101860.69;5026466;28;20442;-71
2022/02/09 02:02:16;;;;;;;0.40;0.30;;;;;;;9.23;100.00;101856.91;5055756;28;20465;-71
2022/02/09 02:04:45;;;;;;;0.40;0.30;;;;;;;9.22;100.00;101854.47;5055618;28;20493;-72
2022/02/09 02:07:23;;;;;;;0.40;0.30;;;;;;;9.21;100.00;101848.25;5055716;28;20537;-71
2022/02/09 02:09:50;;;;;;;0.40;0.30;;;;;;;9.22;100.00;101846.38;5055773;28;20906;-71
2022/02/09 02:12:20;;;;;;;0.40;0.30;;;;;;;9.20;100.00;101838.50;5055584;28;20474;-70
2022/02/09 02:14:53;;;;;;;0.40;0.30;;;;;;;9.19;100.00;101839.56;5055587;28;20450;-70
2022/02/09 02:17:26;;;;;;;0.40;0.40;;;;;;;9.19;100.00;101844.97;5055245;28;20892;-70
2022/02/09 02:19:58;;;;;;;0.40;0.30;;;;;;;9.18;100.00;101837.94;5055500;28;20430;-70
2022/02/09 02:22:44;;;;;;;0.40;0.30;;;;;;;9.18;100.00;101840.66;5055047;28;20432;-70
2022/02/09 02:28:15;;;;;;;0.40;0.30;;;;;;;9.19;100.00;101844.97;5052232;28;20548;-70
2022/02/09 02:36:54;;;;;;;0.40;0.30;;;;;;;9.17;100.00;101841.75;5064556;28;20452;-71
2022/02/09 02:59:05;;;;;;;2.30;2.20;;;;;;;9.13;100.00;101826.31;5090298;28;20799;-71
2022/02/09 03:10:08;;;;;;;0.40;0.30;;;;;;;9.10;100.00;101833.03;5090046;28;20409;-71
2022/02/09 03:12:39;;;;;;;0.40;0.30;;;;;;;9.07;100.00;101815.47;5090068;28;20469;-71
2022/02/09 03:15:22;;;;;;;0.40;0.30;;;;;;;9.08;100.00;101832.50;5090100;28;20421;-71
2022/02/09 03:18:02;;;;;;;0.40;0.30;;;;;;;9.12;100.00;101828.19;5090106;28;20433;-71
2022/02/09 03:20:36;;;;;;;0.40;0.30;;;;;;;9.14;100.00;101826.03;5090051;28;20428;-72
2022/02/09 03:23:16;;;;;;;0.40;0.30;;;;;;;9.15;100.00;101824.94;5089890;28;20465;-72
2022/02/09 03:25:54;;;;;;;0.40;0.30;;;;;;;9.16;100.00;101820.34;5089951;28;20573;-72
2022/02/09 03:31:27;;;;;;;0.40;0.30;;;;;;;9.20;100.00;101822.28;5089549;28;20475;-72
2022/02/09 03:42:34;;;;;;;0.40;0.30;;;;;;;9.21;100.00;101810.41;5089409;28;20785;-72
2022/02/09 03:45:41;;;;;;;0.40;0.30;;;;;;;9.19;100.00;101814.44;5075890;28;20533;-72
2022/02/09 03:48:21;;;;;;;0.40;0.30;;;;;;;9.21;100.00;101821.22;5075532;28;20437;-72
2022/02/09 03:51:08;;;;;;;0.40;0.30;;;;;;;9.23;100.00;101810.13;5075956;28;20520;-72
2022/02/09 03:53:52;;;;;;;0.40;0.30;;;;;;;9.18;100.00;101815.53;5075798;28;20512;-72
2022/02/09 03:56:29;;;;;;;0.40;0.30;;;;;;;9.18;100.00;101821.72;5076155;28;20421;-72
2022/02/09 03:58:56;;;;;;;0.40;0.27;;;;;;;9.17;100.00;101816.59;5075835;28;20430;-73
2022/02/09 04:01:26;;;;;;;0.40;0.20;;;;;;;9.17;100.00;101820.13;5075801;28;20445;-73
2022/02/09 04:03:52;;;;;;;0.40;0.30;;;;;;;9.19;100.00;101812.53;5071168;22;20995;-79
2022/02/09 04:06:19;;;;;;;0.40;0.30;;;;;;;9.21;100.00;101809.56;5041203;28;20463;-79
2022/02/09 04:08:51;;;;;;;0.40;0.30;;;;;;;9.22;100.00;101808.50;5041157;28;20442;-78
2022/02/09 04:11:23;;;;;;;0.40;0.30;;;;;;;9.21;100.00;101810.41;5041031;28;20565;-78
2022/02/09 04:13:59;;;;;;;0.40;0.30;;;;;;;9.21;100.00;101809.56;5039980;28;20503;-79
2022/02/09 04:16:39;;;;;;;0.40;0.30;;;;;;;9.22;100.00;101800.41;5040739;28;20467;-79
2022/02/09 04:19:14;;;;;;;0.40;0.30;;;;;;;9.28;100.00;101810.16;5041749;28;20435;-79
2022/02/09 04:38:10;;;;;;;0.40;0.20;;;;;;;9.03;100.00;101797.28;5040658;28;20422;-79
2022/02/09 04:43:34;;;;;;;0.40;0.30;;;;;;;8.97;100.00;101788.34;5041866;28;20419;-79
2022/02/09 04:49:03;;;;;;;0.83;0.83;;;;;;;9.04;100.00;101791.66;5043606;28;20451;-79
2022/02/09 04:51:36;;;;;;;0.50;0.50;;;;;;;9.02;100.00;101791.09;5042049;28;20440;-79
2022/02/09 04:54:23;;;;;;;0.40;0.30;;;;;;;9.05;100.00;101789.75;5041892;28;20431;-79
2022/02/09 04:56:54;;;;;;;0.97;0.93;;;;;;;9.08;100.00;101790.06;5040804;28;20455;-79
2022/02/09 04:59:28;;;;;;;0.40;0.30;;;;;;;9.04;100.00;101782.72;5040298;28;20424;-79
2022/02/09 05:02:18;;;;;;;0.40;0.30;;;;;;;9.04;100.00;101794.34;5040816;28;20427;-79
2022/02/09 05:05:00;;;;;;;0.40;0.30;;;;;;;9.05;100.00;101793.28;5041391;28;20455;-79
2022/02/09 05:18:51;;;;;;;0.40;0.30;;;;;;;9.16;100.00;101787.91;5041375;28;20938;-79
2022/02/09 05:21:51;;;;;;;0.40;0.40;;;;;;;9.18;100.00;101783.88;5041071;28;20474;-80
2022/02/09 05:24:22;;;;;;;0.40;0.30;;;;;;;9.18;100.00;101781.19;5040982;28;20451;-79
2022/02/09 05:27:00;;;;;;;0.40;0.30;;;;;;;9.21;100.00;101772.56;5040968;28;20471;-80
2022/02/09 05:29:27;;;;;;;0.40;0.20;;;;;;;9.21;100.00;101774.44;5040533;28;20916;-80
2022/02/09 05:31:54;;;;;;;0.40;0.30;;;;;;;9.21;100.00;101774.44;5039972;28;20439;-79
2022/02/09 05:34:21;;;;;;;0.40;0.30;;;;;;;9.21;100.00;101763.63;5039312;28;20784;-80
2022/02/09 05:36:48;;;;;;;0.40;0.30;;;;;;;9.24;100.00;101777.41;5039363;28;20474;-79
2022/02/09 05:39:14;;;;;;;0.40;0.30;;;;;;;9.23;100.00;101770.41;5039611;28;20443;-79
2022/02/09 05:41:44;;;;;;;0.83;0.57;;;;;;;9.22;100.00;101774.19;5040042;28;20459;-79
2022/02/09 05:44:12;;;;;;;0.40;0.30;;;;;;;9.19;100.00;101768.47;5039396;28;20936;-79
2022/02/09 05:49:37;;;;;;;0.40;0.20;;;;;;;9.20;100.00;101768.22;5036564;28;20446;-80
2022/02/09 05:52:14;;;;;;;0.40;0.30;;;;;;;9.26;100.00;101780.69;5037927;28;20454;-80
2022/02/09 05:55:08;;;;;;;0.40;0.20;;;;;;;9.23;100.00;101775.00;5038033;28;20439;-80
2022/02/09 05:57:46;;;;;;;0.40;0.30;;;;;;;9.22;100.00;101767.97;5037441;28;20457;-81
2022/02/09 06:00:14;;;;;;;0.40;0.30;;;;;;;9.20;100.00;101768.22;5038359;28;20437;-80
2022/02/09 06:02:40;;;;;;;0.40;0.30;;;;;;;9.24;100.00;101761.19;5038117;28;20459;-80
2022/02/09 06:05:11;;;;;;;0.40;0.27;;;;;;;9.21;100.00;101764.44;5037383;28;20451;-80
2022/02/09 06:07:38;;;;;;;0.40;0.30;;;;;;;9.20;100.00;101765.50;5036982;28;20928;-80
2022/02/09 06:10:12;;;;;;;0.40;0.30;;;;;;;9.18;100.00;101759.56;5037594;28;20451;-80
2022/02/09 06:12:45;;;;;;;0.40;0.30;;;;;;;9.19;100.00;101765.78;5037221;28;20470;-81
2022/02/09 06:15:46;;;;;;;0.40;0.30;;;;;;;9.19;100.00;101758.47;5037101;28;20419;-80
2022/02/09 06:20:59;;;;;;;0.60;0.30;;;;;;;9.24;100.00;101763.91;5035443;28;20423;-81
2022/02/09 06:23:26;;;;;;;0.40;0.30;;;;;;;9.28;100.00;101761.50;5035864;28;20447;-81
2022/02/09 06:25:55;;;;;;;0.40;0.30;;;;;;;9.21;100.00;101753.63;5035186;28;20465;-79
2022/02/09 06:28:23;;;;;;;0.40;0.30;;;;;;;9.21;100.00;101756.34;5035177;28;20801;-80
2022/02/09 06:30:50;;;;;;;0.40;0.30;;;;;;;9.22;100.00;101747.16;5035511;28;20497;-78
2022/02/09 06:33:16;;;;;;;0.40;0.30;;;;;;;9.22;100.00;101749.84;5035746;28;20698;-79
2022/02/09 06:35:43;;;;;;;0.40;0.30;;;;;;;9.23;100.00;101751.47;5035749;28;20996;-80
2022/02/09 06:38:13;;;;;;;0.40;0.30;;;;;;;9.20;100.00;101749.28;5035310;28;20470;-79
2022/02/09 06:40:43;;;;;;;0.40;0.30;;;;;;;9.25;100.00;101756.59;5035398;28;20451;-79
2022/02/09 06:43:09;;;;;;;0.40;0.30;;;;;;;9.25;100.00;101746.63;5035585;28;20447;-79
2022/02/09 06:45:39;;;;;;;0.40;0.30;;;;;;;9.28;100.00;101748.78;5036736;28;20467;-79
2022/02/09 06:48:11;;;;;;;0.50;0.40;;;;;;;9.29;100.00;101747.72;5035715;28;20443;-79
2022/02/09 06:50:41;;;;;;;0.40;0.30;;;;;;;9.31;100.00;101755.56;5035195;28;20478;-79
2022/02/09 06:53:16;;;;;;;0.40;0.30;;;;;;;9.33;100.00;101748.81;5035114;28;20490;-79
2022/02/09 06:55:49;;;;;;;0.40;0.30;;;;;;;9.30;100.00;101743.94;5035236;28;20513;-79
2022/02/09 06:58:20;;;;;;;0.40;0.30;;;;;;;9.30;100.00;101753.94;5036195;28;20435;-79
2022/02/09 07:00:47;;;;;;;0.40;0.30;;;;;;;9.33;100.00;101748.00;5035195;28;20459;-78
2022/02/09 07:03:14;;;;;;;0.40;0.30;;;;;;;9.34;100.00;101755.03;5035302;28;20935;-78
2022/02/09 07:05:40;;;;;;;0.40;0.30;;;;;;;9.37;100.00;101754.50;5035440;28;20529;-78
2022/02/09 07:08:07;;;;;;;0.40;0.20;;;;;;;9.39;100.00;101749.66;5035564;28;20455;-78
2022/02/09 07:10:35;;;;;;;0.40;0.30;;;;;;;9.40;100.00;101754.00;5039376;28;20873;-78
2022/02/09 07:13:03;;;;;;;0.40;0.30;;;;;;;9.39;100.00;101763.19;5037442;28;20486;-78
2022/02/09 07:15:33;;;;;;;0.80;0.77;;;;;;;9.42;99.43;101756.41;5037247;28;20459;-78
2022/02/09 07:18:23;;;;;;;0.40;0.30;;;;;;;9.44;99.71;101765.91;5035740;28;20463;-79
2022/02/09 07:20:57;;;;;;;0.40;0.30;;;;;;;9.48;99.79;101763.50;5040344;28;20976;-78
2022/02/09 07:23:29;;;;;;;0.40;0.30;;;;;;;9.45;99.08;101758.59;5039419;28;20419;-78
2022/02/09 07:28:38;;;;;;;0.50;0.40;;;;;;;9.50;98.33;101758.63;5037892;28;20913;-78
2022/02/09 07:31:07;;;;;;;0.40;0.30;;;;;;;9.53;98.40;101755.41;5044125;28;20450;-78
2022/02/09 07:33:34;;;;;;;0.40;0.30;;;;;;;9.52;98.11;101757.28;5044908;28;20486;-78
2022/02/09 07:36:00;;;;;;;0.40;0.30;;;;;;;9.49;98.37;101757.81;5044458;28;20835;-78
2022/02/09 07:38:27;;;;;;;0.40;0.30;;;;;;;9.51;98.17;101763.75;5039035;28;20435;-78
2022/02/09 07:40:57;;;;;;;0.40;0.30;;;;;;;9.53;97.35;101767.03;5038359;28;20944;-78
2022/02/09 07:43:28;;;;;;;0.40;0.30;;;;;;;9.57;96.62;101764.59;5038114;28;20940;-78
2022/02/09 07:46:17;;;;;;;0.40;0.30;;;;;;;9.56;96.74;101762.97;5039780;28;20497;-78
2022/02/09 07:48:55;;;;;;;0.40;0.20;;;;;;;9.58;96.99;101766.22;5040311;28;20466;-78
2022/02/09 07:51:39;;;;;;;0.40;0.30;;;;;;;9.52;97.16;101761.88;5039993;28;20521;-78
2022/02/09 07:54:07;;;;;;;0.40;0.30;;;;;;;9.57;96.09;101759.19;5040492;28;20521;-78
2022/02/09 07:56:35;;;;;;;0.40;0.30;;;;;;;9.57;96.08;101757.31;5042342;28;20466;-78
2022/02/09 07:59:03;;;;;;;0.40;0.30;;;;;;;9.54;95.01;101752.41;5039634;28;20450;-77
2022/02/09 08:01:31;;;;;;;0.40;0.30;;;;;;;9.57;95.61;101746.47;5038442;28;20820;-77
2022/02/09 08:03:58;;;;;;;0.40;0.30;;;;;;;9.62;95.29;101759.22;5038101;28;20526;-78
2022/02/09 08:06:25;;;;;;;0.40;0.30;;;;;;;9.65;94.22;101747.88;5038076;28;20491;-78
2022/02/09 08:08:54;;;;;;;0.40;0.30;;;;;;;9.69;94.48;101748.94;5039640;28;20497;-78
2022/02/09 08:11:25;;;;;;;0.40;0.30;;;;;;;9.68;94.25;101744.59;5038878;28;20447;-77
2022/02/09 08:26:05;;;;;;;0.40;0.30;;;;;;;9.76;92.60;101749.50;5023580;28;20434;-77
2022/02/09 08:30:59;;;;;;;0.40;0.30;;;;;;;9.80;90.25;101752.50;5035411;28;20412;-76
2022/02/09 08:33:27;;;;;;;0.40;0.30;;;;;;;9.80;91.05;101753.31;5035230;28;20471;-77
2022/02/09 08:35:57;;;;;;;0.40;0.30;;;;;;;9.80;90.18;101753.31;5035635;28;20451;-77
2022/02/09 08:38:29;;;;;;;0.50;0.40;;;;;;;9.82;90.60;101748.44;5035673;28;20507;-77
2022/02/09 08:40:57;;;;;;;0.40;0.30;;;;;;;9.81;89.93;101754.13;5035240;28;20471;-77
2022/02/09 08:43:25;;;;;;;0.40;0.30;;;;;;;9.82;90.73;101755.75;5035613;28;20439;-77
2022/02/09 08:45:52;;;;;;;0.40;0.30;;;;;;;9.84;90.93;101754.41;5035363;28;20466;-77
2022/02/09 08:48:21;;;;;;;0.40;0.30;;;;;;;9.85;90.48;101752.50;5035798;28;20455;-76
2022/02/09 08:50:49;;;;;;;0.40;0.27;;;;;;;9.90;89.95;101741.69;5036416;28;20443;-77
2022/02/09 08:53:17;;;;;;;0.40;0.30;;;;;;;9.92;89.60;101749.56;5036411;28;20485;-77
2022/02/09 08:55:44;;;;;;;0.40;0.30;;;;;;;9.92;88.55;101738.72;5036745;28;20463;-77
2022/02/09 08:58:11;;;;;;;0.40;0.30;;;;;;;9.89;89.45;101734.66;5035586;28;20447;-77
2022/02/09 09:00:39;;;;;;;0.40;0.40;;;;;;;9.89;89.63;101733.84;5035505;28;20474;-77
2022/02/09 09:03:14;;;;;;;0.40;0.30;;;;;;;9.88;89.87;101734.94;5035807;28;20447;-77
2022/02/09 09:05:46;;;;;;;0.40;0.30;;;;;;;9.91;89.13;101731.66;5036029;28;20493;-77
2022/02/09 09:58:12;;;;;;;0.40;0.30;;;;;;;10.12;86.74;101727.91;5034339;28;20498;-77
2022/02/09 10:03:47;;;;;;;0.40;0.30;;;;;;;10.19;86.75;101717.66;5033910;28;20525;-77
2022/02/09 10:32:02;;;;;;;0.40;0.20;;;;;;;10.49;83.73;101694.34;5034120;28;20415;-77
2022/02/09 10:34:36;;;;;;;0.40;0.30;;;;;;;10.50;83.75;101702.22;5033395;28;20506;-77
2022/02/09 10:37:06;;;;;;;0.40;0.30;;;;;;;10.48;84.71;101701.66;5033246;28;20999;-77
2022/02/09 10:39:46;;;;;;;0.40;0.30;;;;;;;10.48;83.24;101692.72;5034444;28;20455;-77
2022/02/09 10:42:16;;;;;;;0.40;0.30;;;;;;;10.45;83.19;101693.31;5033725;28;20523;-77
2022/02/09 10:44:47;;;;;;;0.40;0.30;;;;;;;10.46;83.29;101692.22;5033634;28;20442;-77
2022/02/09 10:47:27;;;;;;;0.40;0.30;;;;;;;10.49;83.45;101678.09;5033711;28;20471;-77
2022/02/09 10:50:10;;;;;;;0.40;0.30;;;;;;;10.47;83.52;101681.09;5033304;28;20431;-76
2022/02/09 10:52:40;;;;;;;0.40;0.30;;;;;;;10.49;83.76;101683.50;5033389;28;20443;-76
2022/02/09 10:55:26;;;;;;;0.40;0.30;;;;;;;10.43;83.61;101674.59;5036969;28;20557;-77
2022/02/09 10:57:53;;;;;;;0.40;0.30;;;;;;;10.47;83.73;101666.75;5037731;28;20896;-77
2022/02/09 11:00:19;;;;;;;0.40;0.30;;;;;;;10.53;83.34;101669.16;5037647;28;20447;-77
2022/02/09 11:02:48;;;;;;;0.40;0.30;;;;;;;10.57;82.62;101670.22;5037987;28;20437;-77
2022/02/09 11:05:16;;;;;;;0.40;0.30;;;;;;;10.61;82.76;101676.72;5037392;28;20948;-77
2022/02/09 11:07:45;;;;;;;0.40;0.30;;;;;;;10.68;81.38;101673.75;5037387;28;20451;-76
2022/02/09 11:10:12;;;;;;;0.40;0.30;;;;;;;10.69;80.89;101680.78;5037231;28;20505;-77
2022/02/09 11:12:40;;;;;;;0.40;0.30;;;;;;;10.66;81.13;101670.47;5037407;28;20447;-77
2022/02/09 11:15:07;;;;;;;0.40;0.30;;;;;;;10.66;81.33;101665.06;5036784;28;20487;-76
2022/02/09 11:17:34;;;;;;;0.40;0.30;;;;;;;10.74;80.99;101671.81;5037068;28;20449;-77
2022/02/09 11:20:02;;;;;;;0.40;0.30;;;;;;;10.78;81.08;101670.19;5037042;28;20541;-77
2022/02/09 11:22:40;;;;;;;0.40;0.20;;;;;;;10.76;81.17;101667.78;5036974;28;20446;-77
2022/02/09 11:25:16;;;;;;;0.50;0.40;;;;;;;10.80;80.83;101668.00;5037372;28;20424;-76
2022/02/09 11:27:49;;;;;;;0.40;0.30;;;;;;;10.83;80.20;101670.16;5037196;28;20853;-76
2022/02/09 11:30:25;;;;;;;0.40;0.20;;;;;;;10.91;80.26;101669.59;5037280;28;20513;-76
2022/02/09 11:33:05;;;;;;;0.40;0.30;;;;;;;10.84;79.44;101669.88;5037349;28;20431;-76
2022/02/09 11:35:39;;;;;;;0.40;0.30;;;;;;;10.84;80.11;101674.50;5037735;28;20544;-77
2022/02/09 11:38:18;;;;;;;0.40;0.30;;;;;;;10.88;80.54;101664.72;5037928;28;20533;-76
2022/02/09 11:40:55;;;;;;;0.40;0.30;;;;;;;10.90;80.71;101672.59;5037295;28;20447;-77
2022/02/09 11:47:12;;;;;;;0.40;0.30;;;;;;;10.81;80.36;101672.34;5017905;28;20463;-77
2022/02/09 11:56:11;;;;;;;0.40;0.27;;;;;;;10.80;80.80;101671.56;5020354;28;20569;-78
2022/02/09 12:01:20;;;;;;;0.40;0.30;;;;;;;10.70;81.64;101668.84;5014477;28;20506;-77
2022/02/09 12:10:10;;;;;;;0.40;0.20;;;;;;;10.58;83.68;101668.31;5018229;28;20404;-77
2022/02/09 12:12:46;;;;;;;0.40;0.30;;;;;;;10.56;84.44;101674.03;5019147;28;20447;-77
2022/02/09 12:15:43;;;;;;;0.40;0.30;;;;;;;10.48;85.07;101676.47;5017928;28;20490;-77
2022/02/09 12:18:24;;;;;;;0.40;0.30;;;;;;;10.53;85.47;101671.84;5016922;28;20444;-78
2022/02/09 12:20:58;;;;;;;0.40;0.30;;;;;;;10.44;86.26;101675.41;5019573;28;20519;-78
2022/02/09 12:23:33;;;;;;;0.40;0.30;;;;;;;10.35;88.06;101683.25;5018385;28;20455;-77
2022/02/09 12:26:06;;;;;;;0.40;0.23;;;;;;;10.29;89.16;101678.94;5016792;28;20471;-77
2022/02/09 12:28:37;;;;;;;0.40;0.30;;;;;;;10.17;90.75;101695.44;5017274;28;20433;-77
2022/02/09 12:31:05;;;;;;;0.40;0.30;;;;;;;9.96;93.69;101683.78;5017232;28;20429;-78
2022/02/09 12:33:33;;;;;;;0.40;0.20;;;;;;;9.79;96.32;101680.53;5018285;28;20448;-77
2022/02/09 12:36:12;;;;;;;0.40;0.30;;;;;;;9.65;98.13;101685.66;5019295;28;20459;-77
2022/02/09 12:38:39;;;;;;;0.40;0.30;;;;;;;9.56;99.10;101677.25;5019334;28;20436;-78
2022/02/09 12:41:13;;;;;;;0.40;0.30;;;;;;;9.50;100.00;101678.28;5020696;28;20447;-78
2022/02/09 12:43:56;;;;;;;0.40;0.30;;;;;;;9.52;100.00;101670.75;5021001;28;20439;-78
2022/02/09 12:46:24;;;;;;;0.40;0.30;;;;;;;9.51;100.00;101662.88;5020214;28;20479;-78
2022/02/09 12:48:52;;;;;;;0.40;0.30;;;;;;;9.54;100.00;101665.06;5020363;28;21069;-78
2022/02/09 12:51:23;;;;;;;0.40;0.30;;;;;;;9.54;99.63;101655.03;5019545;28;20934;-78
2022/02/09 12:53:50;;;;;;;0.50;0.50;;;;;;;9.60;99.20;101656.66;5021163;28;20443;-78
2022/02/09 12:56:23;;;;;;;0.40;0.30;;;;;;;9.70;99.05;101650.50;5020754;28;20476;-78
2022/02/09 12:59:01;;;;;;;0.40;0.30;;;;;;;9.73;97.88;101651.81;5018632;28;20508;-78
2022/02/09 13:01:38;;;;;;;0.40;0.30;;;;;;;9.78;98.40;101644.53;5015943;28;20432;-77
2022/02/09 13:04:05;;;;;;;0.40;0.30;;;;;;;9.85;97.06;101652.38;5014989;28;20463;-76
2022/02/09 13:06:31;;;;;;;0.40;0.30;;;;;;;9.89;96.95;101631.81;5014822;28;20982;-76
2022/02/09 13:08:58;;;;;;;0.40;0.30;;;;;;;10.00;96.11;101638.84;5015119;28;20559;-76
2022/02/09 13:11:28;;;;;;;0.40;0.30;;;;;;;10.03;95.37;101643.72;5015043;28;20454;-76
2022/02/09 13:14:02;;;;;;;0.40;0.30;;;;;;;10.09;94.34;101628.28;5014641;28;20872;-76
2022/02/09 13:16:44;;;;;;;0.40;0.30;;;;;;;10.10;94.61;101624.50;5013983;28;20504;-76
2022/02/09 13:19:36;;;;;;;0.40;0.30;;;;;;;10.20;94.57;101634.53;5014915;28;20527;-77
2022/02/09 13:54:12;;;;;;;0.40;0.30;;;;;;;10.56;90.40;101635.28;5014120;28;20455;-77
2022/02/09 14:10:16;;;;;;;0.40;0.30;;;;;;;10.57;89.46;101640.44;5014989;28;20408;-79
2022/02/09 14:13:43;;;;;;;0.40;0.30;;;;;;;10.56;90.31;101644.22;5012706;28;20454;-77
2022/02/09 14:16:41;;;;;;;0.40;0.30;;;;;;;10.54;90.24;101642.91;5012781;28;21059;-77
2022/02/09 14:19:26;;;;;;;0.40;0.30;;;;;;;10.50;90.10;101647.25;5014286;28;20984;-77
2022/02/09 14:52:27;;;;;;;0.40;0.30;;;;;;;10.26;92.05;101647.78;5012989;28;20407;-76
2022/02/09 14:54:58;;;;;;;0.40;0.30;;;;;;;10.26;92.75;101647.00;5012917;28;20479;-77
2022/02/09 14:57:28;;;;;;;0.40;0.30;;;;;;;10.23;92.33;101651.03;5013226;28;20464;-76
2022/02/09 15:00:08;;;;;;;0.40;0.30;;;;;;;10.25;92.71;101648.88;5013085;28;20491;-77
2022/02/09 15:02:52;;;;;;;0.40;0.30;;;;;;;10.19;92.88;101641.03;5012730;28;20463;-77
2022/02/09 15:08:12;;;;;;;0.40;0.30;;;;;;;10.06;93.85;101637.78;5007581;28;20510;-77
2022/02/09 15:10:44;;;;;;;0.40;0.30;;;;;;;10.12;94.23;101646.69;5012698;28;20479;-76
2022/02/09 15:13:27;;;;;;;0.40;0.20;;;;;;;10.10;94.10;101644.28;5012795;28;20494;-77
2022/02/09 15:16:02;;;;;;;0.40;0.30;;;;;;;10.09;94.25;101636.41;5012738;28;20487;-76
2022/02/09 15:21:23;;;;;;;0.40;0.20;;;;;;;10.06;95.39;101636.97;5005397;28;20918;-76
2022/02/09 15:23:52;;;;;;;0.40;0.30;;;;;;;10.08;94.81;101641.00;5012804;28;20428;-76
2022/02/09 15:26:19;;;;;;;0.40;0.30;;;;;;;10.09;94.81;101653.47;5012574;28;20886;-76
2022/02/09 15:28:48;;;;;;;0.40;0.30;;;;;;;10.04;95.63;101649.94;5012528;28;20456;-76
2022/02/09 15:31:21;;;;;;;0.40;0.30;;;;;;;10.06;95.77;101655.91;5013130;28;20444;-76
2022/02/09 15:33:52;;;;;;;0.40;0.30;;;;;;;10.03;95.86;101651.84;5012808;28;20432;-77
2022/02/09 15:36:28;;;;;;;0.40;0.30;;;;;;;9.99;95.74;101647.25;5012859;28;20523;-76
2022/02/09 15:38:56;;;;;;;0.40;0.40;;;;;;;9.91;96.85;101653.19;5012526;28;20416;-76
2022/02/09 15:41:29;;;;;;;0.40;0.30;;;;;;;9.86;97.19;101654.81;5015715;28;20439;-76
2022/02/09 15:56:13;;;;;;;0.40;0.30;;;;;;;9.86;97.42;101648.59;5015904;28;20476;-76
2022/02/09 16:06:32;;;;;;;0.40;0.30;;;;;;;9.71;98.13;101654.81;5014966;28;20873;-76
2022/02/09 16:09:13;;;;;;;0.40;0.30;;;;;;;9.75;97.72;101645.06;5015542;28;20543;-78
2022/02/09 16:18:11;;;;;;;0.40;0.30;;;;;;;9.81;96.90;101645.88;5016811;28;20816;-78
2022/02/09 16:23:13;;;;;;;0.40;0.20;;;;;;;9.85;96.04;101644.25;5016290;28;20503;-77
2022/02/09 16:25:56;;;;;;;0.40;0.30;;;;;;;9.86;95.82;101645.88;5015892;28;20510;-77
2022/02/09 16:44:55;;;;;;;0.40;0.30;;;;;;;9.82;96.03;101653.72;5015130;28;20525;-77
2022/02/09 16:47:41;;;;;;;0.40;0.30;;;;;;;9.84;94.93;101651.56;5014675;28;20986;-77
2022/02/09 16:50:16;;;;;;;0.40;0.30;;;;;;;9.84;94.70;101656.19;5014879;28;20937;-77
2022/02/09 16:52:47;;;;;;;0.40;0.30;;;;;;;9.85;94.03;101663.22;5015396;28;20527;-77
2022/02/09 16:55:49;;;;;;;0.40;0.30;;;;;;;9.85;93.66;101657.78;5015185;28;20956;-77
2022/02/09 17:20:02;;;;;;;0.40;0.30;;;;;;;9.93;91.88;101667.28;5015101;28;20758;-76
2022/02/09 17:22:29;;;;;;;0.40;0.30;;;;;;;9.96;91.94;101658.59;5014549;28;20451;-76
2022/02/09 17:24:55;;;;;;;0.40;0.30;;;;;;;9.95;92.14;101660.50;5014163;28;20447;-76
2022/02/09 17:27:24;;;;;;;0.40;0.20;;;;;;;9.99;91.20;101658.88;5013920;28;20472;-77
2022/02/09 17:30:17;;;;;;;0.40;0.30;;;;;;;10.03;90.75;101664.56;5014049;28;20451;-77
2022/02/09 17:32:51;;;;;;;0.40;0.30;;;;;;;10.02;90.93;101661.06;5014821;28;20452;-77
2022/02/09 17:35:22;;;;;;;0.40;0.30;;;;;;;10.05;91.05;101665.13;5013735;28;20472;-77
2022/02/09 17:38:04;;;;;;;0.40;0.30;;;;;;;9.97;91.18;101665.66;5013596;28;20905;-77
2022/02/09 17:54:48;;;;;;;0.40;0.30;;;;;;;10.05;90.88;101675.97;5013599;28;20428;-76
2022/02/09 17:57:07;;;;;;;0.40;0.30;;;;;;;10.05;91.11;101673.25;5012870;28;20543;-76
2022/02/09 17:59:45;;;;;;;0.40;0.30;;;;;;;10.05;91.15;101674.06;5013294;28;20542;-77
2022/02/09 18:02:12;;;;;;;0.40;0.20;;;;;;;10.06;91.08;101675.69;5012939;28;20476;-76
2022/02/09 18:04:44;;;;;;;0.40;0.30;;;;;;;10.05;90.86;101682.19;5012792;28;20459;-76
2022/02/09 18:07:16;;;;;;;0.40;0.30;;;;;;;10.04;91.22;101675.13;5013304;28;20484;-77
2022/02/09 18:09:47;;;;;;;0.40;0.30;;;;;;;10.05;90.82;101679.47;5013126;28;20436;-76
2022/02/09 18:12:21;;;;;;;0.40;0.30;;;;;;;10.03;91.42;101692.44;5013050;28;20498;-76
2022/02/09 18:31:34;;;;;;;0.40;0.20;;;;;;;9.92;92.50;101680.00;5053329;28;20418;-73
2022/02/09 18:34:20;;;;;;;0.40;0.30;;;;;;;9.95;92.51;101678.63;5053133;28;20426;-74
2022/02/09 18:45:02;;;;;;;0.40;0.30;;;;;;;9.98;91.89;101694.34;5053115;28;20422;-74
2022/02/09 18:59:26;;;;;;;0.40;0.30;;;;;;;9.97;91.46;101681.91;5052448;28;20413;-75
2022/02/09 19:04:23;;;;;;;0.40;0.30;;;;;;;9.96;91.83;101682.97;5052067;28;20422;-67
2022/02/09 19:07:12;;;;;;;0.40;0.30;;;;;;;9.97;91.36;101681.91;5052283;28;20521;-73
2022/02/09 19:15:30;;;;;;;0.40;0.40;;;;;;;9.96;91.77;101678.38;5053627;28;20539;-76
2022/02/09 19:18:07;;;;;;;0.40;0.30;;;;;;;9.91;91.78;101682.97;5056091;28;20427;-76
2022/02/09 19:20:53;;;;;;;0.60;0.60;;;;;;;9.93;91.91;101678.09;5056079;28;20444;-75
2022/02/09 19:26:30;;;;;;;0.40;0.30;;;;;;;9.91;91.57;101681.06;5056234;28;20413;-76
2022/02/09 19:31:44;;;;;;;0.40;0.30;;;;;;;9.88;91.94;101688.94;5048470;28;20496;-73
2022/02/09 19:45:48;;;;;;;0.40;0.30;;;;;;;9.88;91.44;101683.53;5055889;28;20417;-73
2022/02/09 19:48:18;;;;;;;0.40;0.30;;;;;;;9.87;91.51;101685.38;5055981;28;20436;-74
2022/02/09 19:50:53;;;;;;;0.40;0.30;;;;;;;9.92;91.40;101690.03;5055938;28;20435;-73
2022/02/09 19:53:30;;;;;;;0.40;0.20;;;;;;;9.91;91.87;101688.38;5055578;28;20476;-73
2022/02/09 19:56:00;;;;;;;0.40;0.30;;;;;;;9.84;91.94;101680.53;5055183;28;20847;-72
2022/02/09 19:58:39;;;;;;;0.40;0.30;;;;;;;9.89;92.08;101679.72;5054980;28;20873;-73
2022/02/09 20:01:05;;;;;;;0.40;0.30;;;;;;;9.87;91.47;101677.28;5055813;28;20509;-73
2022/02/09 20:03:32;;;;;;;0.40;0.30;;;;;;;9.81;91.56;101673.75;5055336;28;20469;-73
2022/02/09 20:05:58;;;;;;;0.40;0.30;;;;;;;9.83;91.54;101676.22;5055529;28;20442;-73
2022/02/09 20:08:25;;;;;;;0.40;0.30;;;;;;;9.86;91.36;101684.56;5055310;28;20454;-74
2022/02/09 20:10:52;;;;;;;0.40;0.30;;;;;;;9.81;91.49;101681.88;5055385;28;20445;-72
2022/02/09 20:13:18;;;;;;;0.40;0.30;;;;;;;9.84;91.94;101678.63;5055706;28;20469;-73
2022/02/09 20:15:46;;;;;;;0.40;0.30;;;;;;;9.86;91.45;101681.88;5055348;28;20509;-73
2022/02/09 20:18:12;;;;;;;0.40;0.30;;;;;;;9.87;91.27;101679.97;5054941;28;20951;-73
2022/02/09 20:20:40;;;;;;;0.40;0.23;;;;;;;9.85;91.80;101666.72;5055069;28;20446;-72
2022/02/09 20:23:08;;;;;;;0.40;0.30;;;;;;;9.83;91.71;101676.22;5054977;28;20470;-73
2022/02/09 20:25:35;;;;;;;0.40;0.30;;;;;;;9.84;91.07;101672.41;5054690;28;20438;-73
2022/02/09 20:28:01;;;;;;;3.43;3.13;;;;;;;9.83;90.96;101677.03;5054885;28;20453;-73